Time;durP1;ratioP1;P1;durP2;ratioP2;P2;SDS_P1;SDS_P2;PMS_P1;PMS_P2;Temp;Humidity;BMP_temperature;BMP_pressure;BME280_temperature;BME280_humidity;BME280_pressure;Samples;Min_cycle;Max_cycle;Signal;HPM_P1;HPM_P2
2023/01/23 00:01:18;;;;;;;21.08;9.35;;;2.30;99.90;;;;;;5115911;27;20039;-70
2023/01/23 00:03:43;;;;;;;24.40;10.32;;;2.20;99.90;;;;;;5115892;27;20035;-71
2023/01/23 00:06:15;;;;;;;24.63;10.05;;;2.30;99.90;;;;;;5116199;27;20039;-70
2023/01/23 00:08:42;;;;;;;21.35;9.82;;;2.20;99.90;;;;;;5109984;28;20044;-71
2023/01/23 00:11:13;;;;;;;25.75;10.00;;;2.30;99.90;;;;;;5105028;27;20512;-70
2023/01/23 00:13:38;;;;;;;21.52;8.88;;;2.20;99.90;;;;;;5115637;27;20405;-70
2023/01/23 00:16:06;;;;;;;23.90;9.10;;;2.30;99.90;;;;;;5116046;28;20121;-70
2023/01/23 00:18:31;;;;;;;19.30;8.63;;;2.30;99.90;;;;;;5115853;28;20168;-70
2023/01/23 00:20:57;;;;;;;24.65;9.48;;;2.30;99.90;;;;;;5120326;27;20456;-70
2023/01/23 00:27:03;;;;;;;21.52;9.20;;;2.30;99.90;;;;;;5140917;27;20038;-70
2023/01/23 00:29:29;;;;;;;22.88;10.00;;;2.30;99.90;;;;;;5122511;27;20047;-71
2023/01/23 00:31:54;;;;;;;18.90;8.52;;;2.20;99.90;;;;;;5122686;27;20035;-70
2023/01/23 00:34:20;;;;;;;19.15;9.30;;;2.30;99.90;;;;;;5122543;27;20039;-70
2023/01/23 00:36:46;;;;;;;19.92;8.77;;;2.30;99.90;;;;;;5122614;27;20035;-70
2023/01/23 00:39:17;;;;;;;22.00;9.52;;;2.30;99.90;;;;;;5122399;27;20401;-71
2023/01/23 00:41:55;;;;;;;24.27;9.60;;;2.30;99.90;;;;;;5122503;27;20107;-70
2023/01/23 00:44:21;;;;;;;20.35;8.77;;;2.30;99.90;;;;;;5122761;27;20043;-70
2023/01/23 00:46:47;;;;;;;24.65;9.60;;;2.40;99.90;;;;;;5122427;27;20027;-70
2023/01/23 00:49:16;;;;;;;21.58;9.40;;;2.40;99.90;;;;;;5122305;27;20035;-70
2023/01/23 00:51:43;;;;;;;20.52;8.70;;;2.30;99.90;;;;;;5122549;27;20053;-71
2023/01/23 00:54:08;;;;;;;22.52;9.90;;;2.30;99.90;;;;;;5122391;27;20043;-70
2023/01/23 00:56:34;;;;;;;22.20;9.68;;;2.40;99.90;;;;;;5122503;27;20031;-70
2023/01/23 00:58:59;;;;;;;29.77;10.10;;;2.40;99.90;;;;;;5121863;27;20108;-71
2023/01/23 01:01:26;;;;;;;21.75;10.55;;;2.30;99.90;;;;;;5118924;27;20028;-71
2023/01/23 01:03:52;;;;;;;26.98;10.77;;;2.30;99.90;;;;;;5121639;27;20034;-71
2023/01/23 01:06:18;;;;;;;26.23;10.25;;;2.20;99.90;;;;;;5119275;27;20426;-71
2023/01/23 01:08:43;;;;;;;21.73;9.38;;;2.20;99.90;;;;;;5118481;27;20067;-70
2023/01/23 01:11:09;;;;;;;21.35;8.57;;;2.30;99.90;;;;;;5104563;27;20039;-71
2023/01/23 01:13:35;;;;;;;20.58;8.57;;;2.30;99.90;;;;;;5121916;27;20042;-70
2023/01/23 01:16:01;;;;;;;22.20;9.57;;;2.40;99.90;;;;;;5121889;27;20038;-70
2023/01/23 01:18:27;;;;;;;22.73;9.60;;;2.50;99.90;;;;;;5122356;27;20039;-70
2023/01/23 01:20:53;;;;;;;27.60;10.38;;;2.30;99.90;;;;;;5122441;27;20078;-71
2023/01/23 01:23:20;;;;;;;23.23;9.75;;;2.30;99.90;;;;;;5118608;27;20047;-71
2023/01/23 01:25:45;;;;;;;24.13;10.15;;;2.40;99.90;;;;;;5119160;27;20035;-71
2023/01/23 01:28:12;;;;;;;24.80;10.63;;;2.20;99.90;;;;;;5119577;27;20043;-71
2023/01/23 01:30:48;;;;;;;24.42;10.25;;;2.30;99.90;;;;;;5099803;27;20166;-71
2023/01/23 01:33:14;;;;;;;26.60;11.15;;;2.30;99.90;;;;;;5115202;27;20397;-71
2023/01/23 01:35:40;;;;;;;23.13;11.00;;;2.20;99.90;;;;;;5117949;27;20039;-71
2023/01/23 01:38:07;;;;;;;25.27;10.98;;;2.20;99.90;;;;;;5118179;27;20035;-70
2023/01/23 01:40:35;;;;;;;27.40;11.52;;;2.30;99.90;;;;;;5109199;28;20383;-71
2023/01/23 01:43:04;;;;;;;24.88;11.25;;;2.30;99.90;;;;;;5106515;27;20034;-71
2023/01/23 01:45:55;;;;;;;26.45;11.85;;;2.20;99.90;;;;;;5109629;27;20068;-72
2023/01/23 01:48:24;;;;;;;28.75;11.48;;;2.30;99.90;;;;;;5125018;27;20035;-72
2023/01/23 01:50:50;;;;;;;28.63;12.25;;;2.30;99.90;;;;;;5106229;27;20051;-72
2023/01/23 01:53:16;;;;;;;28.95;11.43;;;2.20;99.90;;;;;;5115831;27;20043;-72
2023/01/23 01:55:42;;;;;;;24.73;11.80;;;2.20;99.90;;;;;;5112458;27;20034;-72
2023/01/23 01:58:08;;;;;;;28.45;12.52;;;2.30;99.90;;;;;;5117802;27;20444;-72
2023/01/23 02:00:34;;;;;;;29.35;12.38;;;2.30;99.90;;;;;;5099019;28;20043;-71
2023/01/23 02:03:02;;;;;;;28.10;11.68;;;2.30;99.90;;;;;;5111235;27;20500;-71
2023/01/23 02:05:37;;;;;;;26.05;12.05;;;2.30;99.90;;;;;;5119346;27;20122;-71
2023/01/23 02:08:09;;;;;;;28.55;12.27;;;2.20;99.90;;;;;;5111092;27;20043;-70
2023/01/23 02:10:36;;;;;;;27.20;11.43;;;2.20;99.90;;;;;;5114537;27;20405;-71
2023/01/23 02:13:24;;;;;;;32.53;11.50;;;2.20;99.90;;;;;;5117963;27;20508;-70
2023/01/23 02:15:51;;;;;;;24.52;12.07;;;2.30;99.90;;;;;;5117733;27;20043;-71
2023/01/23 02:18:19;;;;;;;26.13;11.48;;;2.30;99.90;;;;;;5117447;27;20068;-70
2023/01/23 02:20:46;;;;;;;25.58;11.70;;;2.30;99.90;;;;;;5102274;28;20088;-71
2023/01/23 02:23:40;;;;;;;27.20;11.55;;;2.40;99.90;;;;;;5115685;27;20092;-71
2023/01/23 02:26:10;;;;;;;27.15;11.32;;;2.40;99.90;;;;;;5117218;27;20050;-71
2023/01/23 02:28:48;;;;;;;29.33;11.82;;;2.40;99.90;;;;;;5117439;27;20047;-71
2023/01/23 02:31:14;;;;;;;29.30;12.23;;;2.40;99.90;;;;;;5116915;27;20042;-71
2023/01/23 02:33:42;;;;;;;32.38;12.70;;;2.30;99.90;;;;;;5111881;27;20435;-72
2023/01/23 02:36:09;;;;;;;29.08;12.60;;;2.30;99.90;;;;;;5116224;27;20042;-71
2023/01/23 02:38:43;;;;;;;29.50;11.88;;;2.40;99.90;;;;;;5116531;27;20043;-72
2023/01/23 02:41:19;;;;;;;27.08;12.55;;;2.40;99.90;;;;;;5113072;27;20039;-71
2023/01/23 02:43:47;;;;;;;26.77;12.57;;;2.40;99.90;;;;;;5100874;27;20035;-72
2023/01/23 02:46:14;;;;;;;29.23;12.52;;;2.30;99.90;;;;;;5116866;27;20043;-71
2023/01/23 02:48:42;;;;;;;31.10;12.55;;;2.30;99.90;;;;;;5116490;27;20039;-72
2023/01/23 02:51:09;;;;;;;28.27;13.43;;;2.30;99.90;;;;;;5115893;27;20073;-71
2023/01/23 02:53:34;;;;;;;31.15;13.23;;;2.40;99.90;;;;;;5115489;27;20042;-72
2023/01/23 02:56:00;;;;;;;30.88;13.68;;;2.30;99.90;;;;;;5088403;27;20474;-71
2023/01/23 03:01:10;;;;;;;28.13;12.38;;;2.30;99.90;;;;;;5110351;28;20077;-71
2023/01/23 03:03:35;;;;;;;27.05;12.52;;;2.40;99.90;;;;;;5079616;28;20237;-71
2023/01/23 03:06:04;;;;;;;26.83;12.27;;;2.40;99.90;;;;;;5123057;27;20048;-71
2023/01/23 03:08:34;;;;;;;27.85;12.10;;;2.40;99.90;;;;;;5114122;27;20054;-72
2023/01/23 03:11:02;;;;;;;36.05;13.25;;;2.50;99.90;;;;;;5116225;27;20043;-72
2023/01/23 03:13:29;;;;;;;30.80;12.32;;;2.50;99.90;;;;;;5103675;28;20047;-71
2023/01/23 03:15:56;;;;;;;32.17;12.43;;;2.50;99.90;;;;;;5096180;28;20048;-71
2023/01/23 03:18:23;;;;;;;29.27;12.25;;;2.40;99.90;;;;;;5106559;27;20160;-71
2023/01/23 03:20:48;;;;;;;29.45;13.82;;;2.50;99.90;;;;;;5116538;27;20046;-71
2023/01/23 03:23:15;;;;;;;24.98;12.02;;;2.50;99.90;;;;;;5108760;27;20039;-71
2023/01/23 03:25:45;;;;;;;29.23;13.15;;;2.50;99.90;;;;;;5116574;27;20043;-71
2023/01/23 03:30:12;;;;;;;31.45;13.27;;;2.50;99.90;;;;;;5115901;27;20051;-71
2023/01/23 03:30:56;;;;;;;31.30;12.82;;;2.50;99.90;;;;;;5115203;27;20151;-71
2023/01/23 03:33:21;;;;;;;32.75;13.98;;;2.50;99.90;;;;;;5096008;27;20043;-72
2023/01/23 03:35:48;;;;;;;34.42;13.40;;;2.40;99.90;;;;;;5116754;27;20103;-72
2023/01/23 03:38:16;;;;;;;33.20;13.60;;;2.40;99.90;;;;;;5104790;28;20036;-71
2023/01/23 03:43:30;;;;;;;36.15;14.55;;;2.50;99.90;;;;;;5108676;27;20096;-72
2023/01/23 03:45:56;;;;;;;30.98;14.48;;;2.40;99.90;;;;;;5099135;27;20032;-72
2023/01/23 03:48:22;;;;;;;39.40;15.23;;;2.30;99.90;;;;;;5107179;27;20549;-72
2023/01/23 03:50:48;;;;;;;33.28;14.57;;;2.30;99.90;;;;;;5114778;28;20051;-72
2023/01/23 03:53:14;;;;;;;36.05;14.90;;;2.40;99.90;;;;;;5109758;27;20045;-71
2023/01/23 03:55:39;;;;;;;31.73;13.68;;;2.40;99.90;;;;;;5114594;27;20118;-71
2023/01/23 03:58:05;;;;;;;34.83;14.00;;;2.40;99.90;;;;;;5115420;27;20047;-71
2023/01/23 04:00:31;;;;;;;34.13;13.38;;;2.50;99.90;;;;;;5115450;27;20027;-71
2023/01/23 04:02:56;;;;;;;27.90;12.68;;;2.40;99.90;;;;;;5115678;27;20035;-72
2023/01/23 04:05:22;;;;;;;29.52;13.32;;;2.40;99.90;;;;;;5115310;27;20042;-71
2023/01/23 04:07:47;;;;;;;36.13;14.20;;;2.50;99.90;;;;;;5115841;28;20493;-72
2023/01/23 04:10:14;;;;;;;34.60;13.98;;;2.50;99.90;;;;;;5114884;28;20069;-72
2023/01/23 04:12:42;;;;;;;35.65;12.80;;;2.40;99.90;;;;;;5126919;27;20035;-72
2023/01/23 04:15:08;;;;;;;34.78;14.68;;;2.50;99.90;;;;;;5083805;28;20039;-71
2023/01/23 04:17:34;;;;;;;32.03;14.25;;;2.50;99.90;;;;;;5103881;28;20405;-71
2023/01/23 04:19:59;;;;;;;31.35;13.63;;;2.40;99.90;;;;;;5093305;28;20042;-71
2023/01/23 04:22:25;;;;;;;28.23;13.20;;;2.40;99.90;;;;;;5112726;28;20423;-71
2023/01/23 04:24:50;;;;;;;28.70;13.10;;;2.50;99.90;;;;;;5115243;28;20042;-71
2023/01/23 04:27:16;;;;;;;32.13;13.95;;;2.40;99.90;;;;;;5098150;28;20110;-71
2023/01/23 04:29:42;;;;;;;29.67;13.32;;;2.50;99.90;;;;;;5116000;28;20043;-71
2023/01/23 04:32:08;;;;;;;32.80;13.93;;;2.50;99.90;;;;;;5089161;28;20044;-71
2023/01/23 04:34:34;;;;;;;33.22;14.20;;;2.50;99.90;;;;;;5107062;28;20047;-71
2023/01/23 04:37:06;;;;;;;31.08;13.90;;;2.50;99.90;;;;;;5109555;28;20041;-71
2023/01/23 04:39:32;;;;;;;31.33;12.52;;;2.40;99.90;;;;;;5107601;28;20039;-71
2023/01/23 04:41:57;;;;;;;34.50;13.10;;;2.50;99.90;;;;;;5115073;28;20035;-71
2023/01/23 04:44:23;;;;;;;34.60;13.90;;;2.40;99.90;;;;;;5114778;28;20495;-71
2023/01/23 04:46:54;;;;;;;33.95;13.30;;;2.50;99.90;;;;;;5107889;28;20122;-71
2023/01/23 04:49:21;;;;;;;31.90;13.23;;;2.50;99.90;;;;;;5097561;28;20408;-71
2023/01/23 04:51:48;;;;;;;32.55;13.40;;;2.40;99.90;;;;;;5114833;28;20039;-71
2023/01/23 04:54:15;;;;;;;29.90;12.48;;;2.50;99.90;;;;;;5111808;28;20050;-71
2023/01/23 04:56:41;;;;;;;30.15;13.60;;;2.40;99.90;;;;;;5108743;28;20520;-71
2023/01/23 04:59:06;;;;;;;34.28;13.95;;;2.50;99.90;;;;;;5108292;28;20067;-71
2023/01/23 05:01:32;;;;;;;34.90;13.27;;;2.40;99.90;;;;;;5114790;28;20539;-71
2023/01/23 05:03:58;;;;;;;37.08;13.75;;;2.40;99.90;;;;;;5114348;28;20544;-71
2023/01/23 05:06:24;;;;;;;33.65;13.80;;;2.40;99.90;;;;;;5114507;28;20027;-71
2023/01/23 05:08:49;;;;;;;30.83;12.85;;;2.50;99.90;;;;;;5110144;28;20043;-71
2023/01/23 05:11:15;;;;;;;27.10;11.40;;;2.40;99.90;;;;;;5109829;27;20535;-71
2023/01/23 05:13:41;;;;;;;34.20;13.40;;;2.60;99.90;;;;;;5108421;28;20040;-71
2023/01/23 05:16:06;;;;;;;31.23;12.18;;;2.40;99.90;;;;;;5131536;27;20035;-71
2023/01/23 05:18:32;;;;;;;29.30;12.27;;;2.50;99.90;;;;;;5118843;27;20104;-71
2023/01/23 05:20:57;;;;;;;29.40;12.00;;;2.40;99.90;;;;;;5119094;27;20039;-71
2023/01/23 05:23:23;;;;;;;28.17;12.27;;;2.50;99.90;;;;;;5119117;27;20043;-71
2023/01/23 05:25:49;;;;;;;33.75;14.23;;;2.50;99.90;;;;;;5118062;27;20121;-70
2023/01/23 05:28:14;;;;;;;29.50;12.38;;;2.50;99.90;;;;;;5118654;27;20439;-70
2023/01/23 05:30:40;;;;;;;34.33;14.30;;;2.50;99.90;;;;;;5113053;27;20070;-70
2023/01/23 05:33:06;;;;;;;29.25;12.10;;;2.50;99.90;;;;;;5101305;27;20397;-70
2023/01/23 05:35:32;;;;;;;27.63;12.02;;;2.40;99.90;;;;;;5097870;27;20071;-72
2023/01/23 05:37:58;;;;;;;33.38;12.70;;;2.50;99.90;;;;;;5112712;27;20073;-71
2023/01/23 05:40:23;;;;;;;30.58;10.88;;;2.50;99.90;;;;;;5118266;27;20035;-71
2023/01/23 05:42:49;;;;;;;33.03;13.70;;;2.50;99.90;;;;;;5103277;27;20092;-71
2023/01/23 05:45:15;;;;;;;38.83;13.98;;;2.40;99.90;;;;;;5117348;27;20038;-73
2023/01/23 05:47:41;;;;;;;35.55;14.50;;;2.40;99.90;;;;;;5114903;27;20034;-72
2023/01/23 05:50:08;;;;;;;37.42;14.52;;;2.30;99.90;;;;;;5112646;28;20043;-71
2023/01/23 05:52:34;;;;;;;36.13;14.75;;;2.40;99.90;;;;;;5102941;28;20040;-71
2023/01/23 05:55:04;;;;;;;38.75;14.85;;;2.30;99.90;;;;;;5106145;27;20427;-72
2023/01/23 05:57:30;;;;;;;37.35;14.45;;;2.40;99.90;;;;;;5100292;28;20043;-72
2023/01/23 05:59:55;;;;;;;36.35;14.50;;;2.40;99.90;;;;;;5113690;28;20093;-73
2023/01/23 06:02:21;;;;;;;35.90;14.68;;;2.30;99.90;;;;;;5119735;27;20037;-73
2023/01/23 06:04:47;;;;;;;39.95;14.93;;;2.20;99.90;;;;;;5106508;28;20546;-72
2023/01/23 06:07:19;;;;;;;38.80;14.25;;;2.30;99.90;;;;;;5112282;27;20074;-72
2023/01/23 06:09:45;;;;;;;37.40;14.30;;;2.30;99.90;;;;;;5118577;27;20039;-73
2023/01/23 06:12:11;;;;;;;40.08;15.48;;;2.20;99.90;;;;;;5108827;27;20027;-71
2023/01/23 06:14:37;;;;;;;37.58;14.05;;;2.20;99.90;;;;;;5116013;27;20065;-72
2023/01/23 06:17:03;;;;;;;39.13;15.48;;;2.30;99.90;;;;;;5107051;27;20397;-71
2023/01/23 06:19:29;;;;;;;37.40;16.10;;;2.30;99.90;;;;;;5105790;27;20045;-73
2023/01/23 06:21:55;;;;;;;37.67;15.77;;;2.20;99.90;;;;;;5107642;27;20035;-72
2023/01/23 06:24:21;;;;;;;38.65;16.10;;;2.30;99.90;;;;;;5107596;27;20409;-73
2023/01/23 06:26:46;;;;;;;41.58;15.52;;;2.20;99.90;;;;;;5109231;27;20042;-72
2023/01/23 06:29:12;;;;;;;37.92;15.05;;;2.30;99.90;;;;;;5116225;27;20171;-72
2023/01/23 06:31:46;;;;;;;43.10;16.08;;;2.30;99.90;;;;;;5104263;27;20051;-72
2023/01/23 06:34:12;;;;;;;37.83;15.63;;;2.30;99.90;;;;;;5109347;28;20043;-72
2023/01/23 06:36:39;;;;;;;35.13;16.00;;;2.20;99.90;;;;;;5098300;27;20036;-72
2023/01/23 06:39:05;;;;;;;39.55;15.68;;;2.30;99.90;;;;;;5111180;27;20050;-70
2023/01/23 06:41:31;;;;;;;36.70;14.88;;;2.30;99.90;;;;;;5097866;28;20038;-71
2023/01/23 06:43:56;;;;;;;35.08;13.27;;;2.30;99.90;;;;;;5111174;27;20485;-71
2023/01/23 06:46:22;;;;;;;33.63;14.32;;;2.40;99.90;;;;;;5107355;27;20035;-71
2023/01/23 06:48:48;;;;;;;33.42;15.10;;;2.40;99.90;;;;;;5115657;27;20533;-72
2023/01/23 06:51:13;;;;;;;37.08;14.30;;;2.40;99.90;;;;;;5087217;27;20042;-70
2023/01/23 06:53:39;;;;;;;36.85;12.93;;;2.40;99.90;;;;;;5107570;27;20042;-70
2023/01/23 06:56:06;;;;;;;34.28;14.15;;;2.40;99.90;;;;;;5112489;27;20047;-70
2023/01/23 06:58:32;;;;;;;34.72;14.48;;;2.40;99.90;;;;;;5082784;27;20290;-71
2023/01/23 07:00:58;;;;;;;37.15;15.40;;;2.30;99.90;;;;;;5113743;27;20467;-71
2023/01/23 07:03:24;;;;;;;35.78;15.48;;;2.40;99.90;;;;;;5104795;27;20031;-72
2023/01/23 07:05:50;;;;;;;37.13;15.32;;;2.30;99.90;;;;;;5085317;27;20039;-71
2023/01/23 07:08:16;;;;;;;32.88;15.43;;;2.30;99.90;;;;;;5102896;27;20275;-67
2023/01/23 07:10:42;;;;;;;42.67;15.85;;;2.30;99.90;;;;;;5105211;27;20503;-70
2023/01/23 07:13:10;;;;;;;38.55;16.50;;;2.40;99.90;;;;;;5106727;27;20054;-70
2023/01/23 07:15:36;;;;;;;35.75;15.32;;;2.30;99.90;;;;;;5108320;27;20172;-70
2023/01/23 07:18:02;;;;;;;37.13;15.68;;;2.30;99.90;;;;;;5103499;27;20043;-72
2023/01/23 07:20:28;;;;;;;41.58;15.40;;;2.30;99.90;;;;;;5105874;27;20038;-71
2023/01/23 07:22:57;;;;;;;38.50;14.77;;;2.30;99.90;;;;;;5083394;27;20060;-71
2023/01/23 07:25:24;;;;;;;40.85;16.25;;;2.20;99.90;;;;;;5108221;27;20073;-71
2023/01/23 07:27:50;;;;;;;45.72;16.23;;;2.30;99.90;;;;;;5101076;27;20043;-71
2023/01/23 07:30:16;;;;;;;38.25;15.55;;;2.30;99.90;;;;;;5101957;27;20042;-70
2023/01/23 07:32:42;;;;;;;38.08;16.13;;;2.30;99.90;;;;;;5107069;27;20089;-70
2023/01/23 07:35:09;;;;;;;38.45;16.08;;;2.20;99.90;;;;;;5130004;27;20050;-70
2023/01/23 07:37:35;;;;;;;39.28;16.25;;;2.30;99.90;;;;;;5103506;27;20054;-71
2023/01/23 07:40:00;;;;;;;38.45;16.45;;;2.40;99.90;;;;;;5101840;27;20035;-70
2023/01/23 07:42:26;;;;;;;32.40;15.48;;;2.40;99.90;;;;;;5100719;27;20031;-70
2023/01/23 07:44:52;;;;;;;37.60;14.85;;;2.40;99.90;;;;;;5103909;28;20563;-70
2023/01/23 07:47:18;;;;;;;41.85;16.33;;;2.40;99.90;;;;;;5108078;27;20039;-70
2023/01/23 07:49:44;;;;;;;46.80;15.07;;;2.40;99.90;;;;;;5100437;27;20138;-71
2023/01/23 07:52:09;;;;;;;37.50;15.35;;;2.40;99.90;;;;;;5111771;27;20050;-71
2023/01/23 07:54:35;;;;;;;38.65;16.05;;;2.30;99.90;;;;;;5099742;27;20087;-71
2023/01/23 07:57:01;;;;;;;36.85;14.98;;;2.40;99.90;;;;;;5109031;27;20105;-70
2023/01/23 07:59:26;;;;;;;34.72;14.63;;;2.40;99.90;;;;;;5105411;27;20493;-72
2023/01/23 08:01:52;;;;;;;37.75;14.95;;;2.30;99.90;;;;;;5107803;27;20123;-72
2023/01/23 08:04:19;;;;;;;35.95;14.65;;;2.50;99.90;;;;;;5102706;27;20043;-71
2023/01/23 08:06:44;;;;;;;39.33;16.00;;;2.30;99.90;;;;;;5100747;28;20038;-71
2023/01/23 08:09:11;;;;;;;40.10;15.88;;;2.40;99.90;;;;;;5100666;27;20049;-71
2023/01/23 08:11:37;;;;;;;40.85;15.80;;;2.50;99.90;;;;;;5108686;27;20042;-72
2023/01/23 08:14:02;;;;;;;42.90;14.88;;;2.40;99.90;;;;;;5103969;27;20494;-72
2023/01/23 08:16:28;;;;;;;40.40;15.82;;;2.40;99.90;;;;;;5111268;28;20027;-71
2023/01/23 08:18:54;;;;;;;40.45;15.65;;;2.50;99.90;;;;;;5106444;28;20091;-72
2023/01/23 08:21:20;;;;;;;35.85;16.08;;;2.40;99.90;;;;;;5102645;27;20035;-72
2023/01/23 08:23:45;;;;;;;38.25;15.13;;;2.40;99.90;;;;;;5102658;28;20030;-72
2023/01/23 08:26:13;;;;;;;39.95;15.82;;;2.50;99.90;;;;;;5100334;28;20038;-71
2023/01/23 08:28:41;;;;;;;47.72;15.30;;;2.60;99.90;;;;;;5097108;28;20043;-72
2023/01/23 08:31:09;;;;;;;41.13;15.27;;;2.40;99.90;;;;;;5098460;28;20069;-70
2023/01/23 08:33:36;;;;;;;36.90;15.75;;;2.60;99.90;;;;;;5100767;28;21237;-72
2023/01/23 08:36:03;;;;;;;40.65;16.88;;;2.60;99.90;;;;;;5085025;28;20043;-71
2023/01/23 08:38:29;;;;;;;37.00;15.05;;;2.60;99.90;;;;;;5104476;28;20051;-71
2023/01/23 08:40:58;;;;;;;38.58;16.08;;;2.50;99.90;;;;;;5116014;27;20080;-72
2023/01/23 08:43:24;;;;;;;37.83;15.48;;;2.60;99.90;;;;;;5111942;27;20060;-70
2023/01/23 08:45:52;;;;;;;34.83;15.15;;;2.60;99.90;;;;;;5107140;27;20043;-72
2023/01/23 08:48:19;;;;;;;34.88;15.63;;;2.60;99.90;;;;;;5107537;27;20073;-71
2023/01/23 08:50:45;;;;;;;35.90;15.63;;;2.60;99.90;;;;;;5105801;27;20032;-72
2023/01/23 08:53:11;;;;;;;33.58;14.80;;;2.80;99.90;;;;;;5107052;27;20730;-71
2023/01/23 08:55:38;;;;;;;34.28;14.45;;;2.70;99.90;;;;;;5108585;27;20039;-71
2023/01/23 08:58:08;;;;;;;39.30;15.85;;;2.70;99.90;;;;;;5106244;27;20041;-71
2023/01/23 09:00:34;;;;;;;32.88;14.52;;;2.80;99.90;;;;;;5103288;27;20031;-71
2023/01/23 09:03:01;;;;;;;32.42;15.00;;;2.90;99.90;;;;;;5106644;27;20047;-72
2023/01/23 09:05:28;;;;;;;38.88;15.68;;;2.80;99.90;;;;;;5109697;27;20130;-71
2023/01/23 09:07:54;;;;;;;33.40;15.13;;;2.90;99.90;;;;;;5107704;27;20030;-71
2023/01/23 09:10:20;;;;;;;39.83;16.23;;;2.90;99.90;;;;;;5102948;27;20145;-72
2023/01/23 09:12:45;;;;;;;38.72;16.08;;;2.80;99.90;;;;;;5106385;27;20113;-68
2023/01/23 09:15:11;;;;;;;39.83;16.27;;;2.90;99.90;;;;;;5089040;27;20074;-71
2023/01/23 09:17:37;;;;;;;34.08;14.50;;;2.90;99.90;;;;;;5111431;27;20038;-72
2023/01/23 09:20:05;;;;;;;36.53;15.35;;;2.90;99.90;;;;;;5104398;27;20393;-71
2023/01/23 09:22:31;;;;;;;33.03;15.45;;;2.90;99.90;;;;;;5113131;27;20316;-71
2023/01/23 09:24:57;;;;;;;35.63;15.13;;;3.00;99.90;;;;;;5109066;27;20036;-71
2023/01/23 09:27:23;;;;;;;34.65;14.20;;;3.00;99.90;;;;;;5110839;28;20539;-72
2023/01/23 09:29:49;;;;;;;36.28;15.68;;;2.90;99.90;;;;;;5129996;27;20058;-72
2023/01/23 09:32:15;;;;;;;39.80;15.75;;;3.00;99.90;;;;;;5109898;27;20120;-72
2023/01/23 09:34:40;;;;;;;30.00;15.05;;;3.00;99.90;;;;;;5110364;27;20035;-72
2023/01/23 09:37:06;;;;;;;36.03;15.43;;;3.10;99.90;;;;;;5111202;27;20035;-71
2023/01/23 09:39:32;;;;;;;39.03;15.95;;;3.10;99.90;;;;;;5105530;27;20046;-71
2023/01/23 09:42:03;;;;;;;35.75;15.73;;;3.20;99.90;;;;;;5090279;27;20080;-71
2023/01/23 09:44:43;;;;;;;39.58;15.20;;;3.20;99.90;;;;;;5106342;27;20389;-71
2023/01/23 09:47:17;;;;;;;31.83;15.07;;;3.20;99.90;;;;;;5113284;27;20082;-71
2023/01/23 09:49:49;;;;;;;37.45;17.00;;;3.20;99.90;;;;;;5112493;27;20043;-71
2023/01/23 09:52:24;;;;;;;34.70;14.10;;;3.20;99.90;;;;;;5106011;27;20045;-71
2023/01/23 09:55:02;;;;;;;34.42;15.20;;;3.20;99.90;;;;;;5109116;27;20039;-72
2023/01/23 09:57:35;;;;;;;33.80;14.85;;;3.30;99.90;;;;;;5127737;27;20043;-72
2023/01/23 10:00:10;;;;;;;33.78;14.80;;;3.30;99.90;;;;;;5118938;27;20047;-72
2023/01/23 10:02:36;;;;;;;51.33;15.45;;;3.40;99.90;;;;;;5112510;27;20039;-72
2023/01/23 10:05:01;;;;;;;34.17;14.05;;;3.40;99.90;;;;;;5108822;27;20039;-72
2023/01/23 10:07:36;;;;;;;33.80;14.15;;;3.40;99.90;;;;;;5110541;27;20031;-72
2023/01/23 10:10:25;;;;;;;32.08;14.20;;;3.50;99.90;;;;;;5110170;27;20525;-72
2023/01/23 10:13:14;;;;;;;29.38;13.93;;;3.50;99.90;;;;;;5070450;27;20077;-72
2023/01/23 10:15:58;;;;;;;32.58;14.73;;;3.50;99.90;;;;;;5102179;27;20401;-71
2023/01/23 10:18:31;;;;;;;33.33;13.88;;;3.50;99.90;;;;;;5108432;27;20035;-72
2023/01/23 10:21:45;;;;;;;30.02;13.77;;;3.50;99.90;;;;;;5111305;27;20039;-72
2023/01/23 10:24:32;;;;;;;33.25;13.80;;;3.60;99.90;;;;;;5046706;28;20407;-72
2023/01/23 10:27:28;;;;;;;35.20;14.30;;;3.60;99.90;;;;;;5095546;27;20401;-72
2023/01/23 10:30:01;;;;;;;34.63;13.73;;;3.60;99.90;;;;;;5106824;27;20754;-72
2023/01/23 10:32:29;;;;;;;39.88;14.82;;;3.70;99.90;;;;;;5095674;27;20047;-72
2023/01/23 10:34:55;;;;;;;31.08;14.40;;;3.70;99.90;;;;;;5107552;27;20046;-72
2023/01/23 10:37:42;;;;;;;30.67;11.05;;;3.70;99.90;;;;;;5094413;27;20040;-72
2023/01/23 10:40:14;;;;;;;23.85;10.23;;;3.70;99.90;;;;;;5110261;27;20100;-72
2023/01/23 10:42:39;;;;;;;33.47;13.98;;;3.80;99.90;;;;;;5109718;27;20062;-72
2023/01/23 10:45:06;;;;;;;28.38;13.63;;;3.80;99.90;;;;;;5108217;27;20046;-72
2023/01/23 10:47:50;;;;;;;27.90;12.38;;;3.70;99.90;;;;;;5110196;27;20126;-72
2023/01/23 10:50:34;;;;;;;26.70;12.27;;;3.80;99.90;;;;;;5106557;27;20043;-73
2023/01/23 10:53:14;;;;;;;31.95;13.25;;;3.70;99.90;;;;;;5108760;27;20043;-72
2023/01/23 10:55:44;;;;;;;30.13;13.00;;;3.80;99.90;;;;;;5102954;27;20418;-72
2023/01/23 10:58:30;;;;;;;28.92;12.90;;;3.80;99.90;;;;;;5107815;27;20147;-72
2023/01/23 11:00:56;;;;;;;28.00;11.77;;;3.80;99.90;;;;;;5106654;27;20414;-72
2023/01/23 11:03:29;;;;;;;27.50;12.23;;;3.80;99.90;;;;;;5116097;27;20049;-73
2023/01/23 11:06:05;;;;;;;;;;;3.70;99.90;;;;;;5098572;27;20043;-72
2023/01/23 11:08:38;;;;;;;23.08;10.95;;;3.80;99.90;;;;;;5096528;27;19935;-72
2023/01/23 11:11:21;;;;;;;23.73;10.85;;;3.70;99.90;;;;;;5102217;27;20425;-71
2023/01/23 11:13:50;;;;;;;19.15;9.50;;;3.70;99.90;;;;;;5101143;27;20075;-72
2023/01/23 11:16:21;;;;;;;23.85;9.60;;;3.80;99.90;;;;;;5105555;27;20064;-72
2023/01/23 11:19:16;;;;;;;25.70;11.05;;;3.80;99.90;;;;;;5105873;27;20050;-73
2023/01/23 11:21:57;;;;;;;21.92;10.25;;;3.90;99.90;;;;;;5102909;27;20047;-72
2023/01/23 11:24:29;;;;;;;20.85;10.60;;;3.80;99.90;;;;;;5100497;27;20057;-72
2023/01/23 11:27:27;;;;;;;26.15;11.30;;;3.80;99.90;;;;;;5105972;27;20563;-72
2023/01/23 11:30:08;;;;;;;24.02;10.60;;;3.80;99.90;;;;;;5106680;27;20043;-72
2023/01/23 11:32:52;;;;;;;24.63;10.82;;;3.80;99.90;;;;;;5105509;27;20546;-72
2023/01/23 11:35:26;;;;;;;20.83;10.23;;;3.80;99.90;;;;;;5101084;27;20047;-72
2023/01/23 11:37:54;;;;;;;20.13;10.30;;;3.80;99.90;;;;;;5116105;27;20053;-73
2023/01/23 11:40:20;;;;;;;23.27;10.70;;;3.80;99.90;;;;;;5098565;27;20774;-72
2023/01/23 11:42:46;;;;;;;23.15;10.40;;;3.80;99.90;;;;;;5097915;27;20039;-72
2023/01/23 11:45:22;;;;;;;21.92;11.05;;;4.00;99.90;;;;;;5098101;27;20042;-72
2023/01/23 11:48:17;;;;;;;22.27;10.75;;;3.90;99.90;;;;;;5099647;27;20054;-72
2023/01/23 11:50:53;;;;;;;19.48;9.85;;;3.80;99.90;;;;;;5095617;27;20028;-72
2023/01/23 11:53:26;;;;;;;19.70;9.63;;;3.90;99.90;;;;;;5095148;27;20039;-72
2023/01/23 11:55:51;;;;;;;20.17;8.60;;;3.90;99.90;;;;;;5098583;27;21709;-72
2023/01/23 11:58:34;;;;;;;17.55;9.05;;;4.00;99.90;;;;;;5095780;27;20035;-72
2023/01/23 12:00:59;;;;;;;;;;;4.00;99.90;;;;;;5096893;27;20427;-73
2023/01/23 12:03:34;;;;;;;18.52;9.05;;;4.00;99.90;;;;;;5112645;27;19945;-72
2023/01/23 12:06:18;;;;;;;20.67;9.13;;;4.00;99.90;;;;;;5098433;27;20755;-73
2023/01/23 12:09:01;;;;;;;20.35;9.88;;;4.10;99.90;;;;;;5100054;27;20047;-72
2023/01/23 12:11:41;;;;;;;17.77;8.45;;;4.10;99.90;;;;;;5100007;27;20047;-73
2023/01/23 12:14:18;;;;;;;17.15;7.50;;;4.20;99.90;;;;;;5097621;27;20133;-72
2023/01/23 12:17:00;;;;;;;16.05;7.25;;;4.20;99.90;;;;;;5101089;27;20043;-73
2023/01/23 12:19:37;;;;;;;22.23;10.05;;;4.30;99.90;;;;;;5103940;27;20047;-72
2023/01/23 12:22:29;;;;;;;16.23;8.10;;;4.30;99.90;;;;;;5098099;28;20039;-72
2023/01/23 12:25:23;;;;;;;13.70;7.13;;;4.30;99.90;;;;;;5100514;28;20035;-72
2023/01/23 12:27:58;;;;;;;17.92;7.32;;;4.40;99.90;;;;;;5100960;28;20161;-72
2023/01/23 12:30:27;;;;;;;12.10;5.90;;;4.40;99.90;;;;;;5097992;28;20057;-72
2023/01/23 12:33:13;;;;;;;23.15;8.90;;;4.40;99.90;;;;;;5101457;28;20508;-73
2023/01/23 12:36:16;;;;;;;18.02;8.00;;;4.40;99.90;;;;;;5100376;28;20200;-72
2023/01/23 12:38:54;;;;;;;;;;;4.40;99.90;;;;;;5097788;28;20052;-72
2023/01/23 12:41:45;;;;;;;18.02;9.07;;;4.40;99.90;;;;;;5097918;28;19966;-72
2023/01/23 12:44:19;;;;;;;17.67;9.60;;;4.40;99.90;;;;;;5093166;28;20035;-72
2023/01/23 12:46:54;;;;;;;17.58;7.65;;;4.40;99.90;;;;;;5099835;28;20144;-72
2023/01/23 12:49:47;;;;;;;13.57;7.63;;;4.40;99.90;;;;;;5095772;28;20077;-73
2023/01/23 12:52:22;;;;;;;;;;;4.50;99.90;;;;;;5114363;28;20039;-71
2023/01/23 12:55:16;;;;;;;15.93;7.72;;;4.50;99.90;;;;;;5096191;27;19954;-71
2023/01/23 12:57:43;;;;;;;17.92;8.88;;;4.50;99.90;;;;;;5098247;27;20048;-71
2023/01/23 13:00:30;;;;;;;19.40;8.90;;;4.50;99.90;;;;;;5094101;28;20505;-69
2023/01/23 13:03:23;;;;;;;20.85;9.07;;;4.40;99.90;;;;;;5096472;28;20480;-71